createdAt,value
2023-03-15T00:00:12.609Z,2.28
2023-03-15T00:02:39.494Z,2.34
2023-03-15T00:05:06.645Z,2.49
2023-03-15T00:07:33.292Z,2.36
2023-03-15T00:09:59.900Z,2.18
2023-03-15T00:12:26.506Z,2.23
2023-03-15T00:14:53.171Z,2.32
2023-03-15T00:17:19.796Z,2.38
2023-03-15T00:19:48.113Z,2.36
2023-03-15T00:22:14.748Z,2.42
2023-03-15T00:24:41.358Z,2.35
2023-03-15T00:27:08.121Z,2.38
2023-03-15T00:29:34.719Z,2.60
2023-03-15T00:32:01.298Z,2.52
2023-03-15T00:34:27.894Z,2.54
2023-03-15T00:36:57.639Z,2.40
2023-03-15T00:39:25.883Z,2.45
2023-03-15T00:41:56.934Z,2.27
2023-03-15T00:44:24.680Z,2.40
2023-03-15T00:46:51.520Z,2.43
2023-03-15T00:49:18.360Z,2.39
2023-03-15T00:51:44.920Z,2.34
2023-03-15T00:54:13.942Z,2.30
2023-03-15T00:56:41.423Z,2.17
2023-03-15T00:59:08.723Z,2.06
2023-03-15T01:01:35.559Z,2.17
2023-03-15T01:04:04.296Z,2.24
2023-03-15T01:06:32.094Z,2.17
2023-03-15T01:08:59.720Z,2.28
2023-03-15T01:11:27.811Z,2.38
2023-03-15T01:13:56.912Z,2.15
2023-03-15T01:16:24.081Z,2.29
2023-03-15T01:18:51.770Z,2.42
2023-03-15T01:21:20.363Z,2.43
2023-03-15T01:23:47.734Z,2.36
2023-03-15T01:26:16.300Z,2.29
2023-03-15T01:28:43.982Z,2.41
2023-03-15T01:31:22.580Z,2.50
2023-03-15T01:33:49.312Z,2.42
2023-03-15T01:36:16.390Z,2.48
2023-03-15T01:38:43.476Z,2.32
2023-03-15T01:41:12.038Z,2.22
2023-03-15T01:43:38.777Z,2.30
2023-03-15T01:46:15.844Z,2.16
2023-03-15T01:48:46.984Z,2.29
2023-03-15T01:51:47.072Z,1.94
2023-03-15T01:54:20.938Z,1.86
2023-03-15T01:56:54.637Z,1.95
2023-03-15T01:59:26.856Z,1.74
2023-03-15T02:01:54.720Z,1.80
2023-03-15T02:04:25.824Z,1.70
2023-03-15T02:06:59.451Z,1.65
2023-03-15T02:09:54.781Z,1.62
2023-03-15T02:12:21.436Z,1.75
2023-03-15T02:14:50.943Z,1.78
2023-03-15T02:17:22.432Z,1.82
2023-03-15T02:20:30.594Z,1.87
2023-03-15T02:22:59.026Z,1.83
2023-03-15T02:25:41.374Z,1.50
2023-03-15T02:28:10.790Z,1.59
2023-03-15T02:30:37.531Z,1.41
2023-03-15T02:33:07.850Z,1.40
2023-03-15T02:35:34.591Z,1.39
2023-03-15T02:38:02.798Z,1.40
2023-03-15T02:40:30.490Z,1.22
2023-03-15T02:43:09.398Z,1.03
2023-03-15T02:45:37.076Z,1.06
2023-03-15T02:48:05.644Z,1.01
2023-03-15T02:50:32.585Z,1.29
2023-03-15T02:52:59.182Z,1.19
2023-03-15T02:55:25.784Z,1.02
2023-03-15T02:57:52.403Z,1.12
2023-03-15T03:00:19.741Z,1.15
2023-03-15T03:02:48.016Z,1.15
2023-03-15T03:05:16.149Z,1.08
2023-03-15T03:07:43.384Z,1.07
2023-03-15T03:10:11.995Z,1.04
2023-03-15T03:12:53.655Z,1.16
2023-03-15T03:15:26.628Z,1.04
2023-03-15T03:17:54.566Z,1.03
2023-03-15T03:20:23.451Z,0.91
2023-03-15T03:22:50.087Z,1.04
2023-03-15T03:25:18.094Z,1.18
2023-03-15T03:27:46.713Z,1.23
2023-03-15T03:30:14.861Z,1.18
2023-03-15T03:32:47.639Z,1.08
2023-03-15T03:35:16.116Z,1.07
2023-03-15T03:37:43.042Z,0.93
2023-03-15T03:40:14.997Z,1.09
2023-03-15T03:42:42.327Z,1.07
2023-03-15T03:45:09.640Z,1.04
2023-03-15T03:47:41.085Z,1.12
2023-03-15T03:50:09.984Z,1.12
2023-03-15T03:52:36.602Z,0.96
2023-03-15T03:55:13.695Z,1.07
2023-03-15T03:57:42.304Z,1.03
2023-03-15T04:00:14.545Z,1.01
2023-03-15T04:02:44.928Z,0.95
2023-03-15T04:05:14.466Z,0.97
2023-03-15T04:07:41.778Z,0.98
2023-03-15T04:10:14.774Z,0.91
2023-03-15T04:12:44.254Z,0.93
2023-03-15T04:15:12.305Z,0.78
2023-03-15T04:17:40.229Z,0.79
2023-03-15T04:20:09.236Z,0.88
2023-03-15T04:22:38.574Z,0.87
2023-03-15T04:25:28.242Z,0.89
2023-03-15T04:28:11.351Z,0.85
2023-03-15T04:30:59.009Z,0.88
2023-03-15T04:33:45.029Z,0.92
2023-03-15T04:36:33.378Z,0.94
2023-03-15T04:39:07.380Z,0.96
2023-03-15T04:41:55.136Z,0.94
2023-03-15T04:44:27.772Z,0.92
2023-03-15T04:47:18.368Z,0.86
2023-03-15T04:49:55.611Z,0.90
2023-03-15T04:52:42.872Z,0.82
2023-03-15T04:55:44.362Z,0.76
2023-03-15T04:58:13.569Z,0.80
2023-03-15T05:00:59.865Z,0.83
2023-03-15T05:03:45.394Z,0.85
2023-03-15T05:06:26.075Z,0.86
2023-03-15T05:09:01.405Z,0.85
2023-03-15T05:11:53.066Z,0.83
2023-03-15T05:14:55.377Z,0.80
2023-03-15T05:17:40.878Z,0.71
2023-03-15T05:20:16.915Z,0.65
2023-03-15T05:22:57.254Z,0.59
2023-03-15T05:25:38.372Z,0.64
2023-03-15T05:28:25.891Z,0.59
2023-03-15T05:31:07.755Z,0.61
2023-03-15T05:34:04.404Z,0.63
2023-03-15T05:36:51.800Z,0.61
2023-03-15T05:39:34.810Z,0.59
2023-03-15T05:42:11.127Z,0.60
2023-03-15T05:44:59.791Z,0.61
2023-03-15T05:47:42.797Z,0.60
2023-03-15T05:50:17.238Z,0.60
2023-03-15T05:52:58.347Z,0.62
2023-03-15T05:55:45.215Z,0.61
2023-03-15T05:58:27.660Z,0.57
2023-03-15T06:01:19.234Z,0.59
2023-03-15T06:04:11.919Z,0.61
2023-03-15T06:06:39.629Z,0.57
2023-03-15T06:09:08.522Z,0.60
2023-03-15T06:11:35.853Z,0.71
2023-03-15T06:14:02.589Z,0.76
2023-03-15T06:16:48.416Z,0.83
2023-03-15T06:19:15.112Z,0.81
2023-03-15T06:21:41.725Z,0.90
2023-03-15T06:24:13.710Z,0.94
2023-03-15T06:26:41.246Z,1.02
2023-03-15T06:29:08.374Z,1.09
2023-03-15T06:31:35.156Z,1.16
2023-03-15T06:34:08.802Z,1.26
2023-03-15T06:36:37.063Z,1.31
2023-03-15T06:39:04.590Z,1.34
2023-03-15T06:41:32.609Z,1.43
2023-03-15T06:44:08.941Z,1.54
2023-03-15T06:46:36.602Z,1.63
2023-03-15T06:49:03.530Z,1.68
2023-03-15T06:51:30.901Z,1.74
2023-03-15T06:53:57.504Z,1.82
2023-03-15T06:56:24.198Z,1.87
2023-03-15T06:58:54.374Z,1.86
2023-03-15T07:01:21.168Z,1.89
2023-03-15T07:03:47.827Z,1.94
2023-03-15T07:06:14.430Z,1.92
2023-03-15T07:08:41.117Z,1.97
2023-03-15T07:11:08.056Z,2.02
2023-03-15T07:13:34.662Z,2.01
2023-03-15T07:16:01.323Z,2.07
2023-03-15T07:18:28.040Z,2.16
2023-03-15T07:20:58.715Z,2.17
2023-03-15T07:23:25.743Z,2.19
2023-03-15T07:25:55.508Z,2.25
2023-03-15T07:28:23.990Z,2.34
2023-03-15T07:30:54.514Z,2.38
2023-03-15T07:33:28.388Z,2.42
2023-03-15T07:35:55.407Z,2.52
2023-03-15T07:38:23.336Z,2.54
2023-03-15T07:40:49.917Z,2.51
2023-03-15T07:43:19.724Z,2.61
2023-03-15T07:45:49.634Z,2.68
2023-03-15T07:48:16.207Z,2.81
2023-03-15T07:50:42.837Z,2.98
2023-03-15T07:53:12.694Z,3.06
2023-03-15T07:55:39.313Z,3.29
2023-03-15T07:58:06.202Z,3.55
2023-03-15T08:00:32.830Z,3.72
2023-03-15T08:03:03.530Z,3.59
2023-03-15T08:05:30.454Z,3.73
2023-03-15T08:07:57.083Z,3.75
2023-03-15T08:10:24.223Z,3.85
2023-03-15T08:12:50.859Z,4.11
2023-03-15T08:15:17.952Z,4.22
2023-03-15T08:17:44.520Z,4.47
2023-03-15T08:20:14.966Z,5.00
2023-03-15T08:22:47.519Z,4.99
2023-03-15T08:25:15.941Z,4.92
2023-03-15T08:27:42.597Z,4.97
2023-03-15T08:30:12.577Z,4.92
2023-03-15T08:32:40.650Z,4.93
2023-03-15T08:35:08.028Z,4.54
2023-03-15T08:37:34.870Z,4.30
2023-03-15T08:40:05.410Z,4.34
2023-03-15T08:42:32.012Z,4.58
2023-03-15T08:44:59.655Z,4.76
2023-03-15T08:47:26.761Z,4.81
2023-03-15T08:49:53.454Z,4.93
2023-03-15T08:52:21.531Z,4.97
2023-03-15T08:54:48.960Z,4.83
2023-03-15T08:57:15.584Z,5.09
2023-03-15T08:59:42.192Z,5.48
2023-03-15T09:02:11.578Z,5.84
2023-03-15T09:04:38.964Z,6.15
2023-03-15T09:07:06.198Z,6.33
2023-03-15T09:09:33.753Z,6.29
2023-03-15T09:12:00.367Z,6.41
2023-03-15T09:14:27.013Z,6.43
2023-03-15T09:16:53.643Z,6.62
2023-03-15T09:19:20.330Z,6.72
2023-03-15T09:21:47.292Z,6.82
2023-03-15T09:24:14.075Z,6.86
2023-03-15T09:26:43.525Z,6.74
2023-03-15T09:29:10.132Z,6.72
2023-03-15T09:31:36.976Z,6.64
2023-03-15T09:34:03.826Z,6.83
2023-03-15T09:36:31.495Z,7.30
2023-03-15T09:38:58.114Z,7.41
2023-03-15T09:41:41.960Z,6.83
2023-03-15T09:44:29.090Z,6.61
2023-03-15T09:47:03.063Z,6.89
2023-03-15T09:49:52.594Z,7.02
2023-03-15T09:52:46.101Z,6.97
2023-03-15T09:55:17.364Z,6.79
2023-03-15T09:57:51.042Z,6.47
2023-03-15T10:00:22.792Z,6.42
2023-03-15T10:02:59.601Z,6.31
2023-03-15T10:05:41.432Z,6.03
2023-03-15T10:08:12.739Z,6.01
2023-03-15T10:11:15.599Z,6.04
2023-03-15T10:13:57.389Z,5.86
2023-03-15T10:16:41.472Z,5.99
2023-03-15T10:19:26.442Z,5.69
2023-03-15T10:22:05.082Z,5.86
2023-03-15T10:24:36.049Z,5.97
2023-03-15T10:27:29.689Z,6.08
2023-03-15T10:29:57.683Z,6.24
2023-03-15T10:32:31.177Z,6.31
2023-03-15T10:34:58.932Z,6.19
2023-03-15T10:37:27.066Z,6.43
2023-03-15T10:39:58.821Z,6.75
2023-03-15T10:42:26.546Z,7.15
2023-03-15T10:44:53.234Z,7.42
2023-03-15T10:47:24.572Z,7.41
2023-03-15T10:49:58.838Z,7.30
2023-03-15T10:52:31.975Z,7.39
2023-03-15T10:55:05.796Z,7.57
2023-03-15T10:57:39.786Z,7.69
2023-03-15T11:00:19.582Z,7.71
2023-03-15T11:02:52.430Z,7.72
2023-03-15T11:05:20.192Z,7.53
2023-03-15T11:07:57.858Z,6.94
2023-03-15T11:10:27.140Z,6.85
2023-03-15T11:13:13.781Z,6.58
2023-03-15T11:15:48.683Z,6.26
2023-03-15T11:18:20.604Z,6.32
2023-03-15T11:20:50.395Z,6.14
2023-03-15T11:23:27.414Z,6.14
2023-03-15T11:25:55.207Z,5.88
2023-03-15T11:28:31.398Z,6.18
2023-03-15T11:31:00.964Z,6.44
2023-03-15T11:33:37.872Z,6.53
2023-03-15T11:36:08.626Z,6.51
2023-03-15T11:38:44.792Z,6.59
2023-03-15T11:41:27.943Z,6.47
2023-03-15T11:44:31.467Z,6.60
2023-03-15T11:47:01.933Z,6.54
2023-03-15T11:49:36.954Z,6.24
2023-03-15T11:52:04.754Z,6.24
2023-03-15T11:54:32.338Z,6.48
2023-03-15T11:57:07.185Z,6.49
2023-03-15T11:59:40.494Z,6.53
2023-03-15T12:02:10.414Z,6.30
2023-03-15T12:04:44.160Z,6.36
2023-03-15T12:07:16.880Z,6.46
2023-03-15T12:09:52.417Z,6.38
2023-03-15T12:12:43.269Z,6.15
2023-03-15T12:15:35.934Z,6.39
2023-03-15T12:18:15.080Z,6.25
2023-03-15T12:20:43.165Z,6.46
2023-03-15T12:23:18.969Z,6.55
2023-03-15T12:25:56.244Z,6.43
2023-03-15T12:28:51.082Z,6.27
2023-03-15T12:31:18.260Z,6.51
2023-03-15T12:33:58.463Z,6.60
2023-03-15T12:36:40.220Z,6.62
2023-03-15T12:39:09.802Z,6.76
2023-03-15T12:41:40.014Z,6.80
2023-03-15T12:44:26.625Z,6.68
2023-03-15T12:46:55.012Z,6.43
2023-03-15T12:49:24.655Z,6.36
2023-03-15T12:51:59.489Z,6.40
2023-03-15T12:54:49.340Z,6.33
2023-03-15T12:57:24.774Z,5.96
2023-03-15T12:59:56.284Z,5.98
2023-03-15T13:02:44.628Z,5.89
2023-03-15T13:05:13.723Z,5.68
2023-03-15T13:08:05.676Z,5.54
2023-03-15T13:10:50.881Z,5.22
2023-03-15T13:13:54.782Z,5.36
2023-03-15T13:16:38.526Z,5.22
2023-03-15T13:19:14.493Z,5.12
2023-03-15T13:22:12.096Z,5.03
2023-03-15T13:24:49.252Z,5.12
2023-03-15T13:27:42.827Z,4.91
2023-03-15T13:30:34.102Z,4.88
2023-03-15T13:33:29.876Z,5.13
2023-03-15T13:36:00.444Z,5.40
2023-03-15T13:38:44.982Z,5.50
2023-03-15T13:41:28.490Z,5.55
2023-03-15T13:44:01.171Z,5.67
2023-03-15T13:46:30.336Z,5.73
2023-03-15T13:48:57.318Z,5.90
2023-03-15T13:51:26.931Z,5.83
2023-03-15T13:54:17.491Z,5.91
2023-03-15T13:56:57.036Z,6.08
2023-03-15T13:59:27.637Z,5.66
2023-03-15T14:01:54.493Z,5.32
2023-03-15T14:04:25.382Z,5.43
2023-03-15T14:07:04.217Z,5.40
2023-03-15T14:09:30.847Z,5.44
2023-03-15T14:12:06.404Z,5.65
2023-03-15T14:14:37.736Z,5.89
2023-03-15T14:17:18.779Z,6.22
2023-03-15T14:19:54.404Z,6.49
2023-03-15T14:22:21.332Z,6.27
2023-03-15T14:24:50.665Z,6.29
2023-03-15T14:27:19.034Z,6.48
2023-03-15T14:29:57.214Z,6.88
2023-03-15T14:32:23.816Z,7.16
2023-03-15T14:34:59.226Z,7.29
2023-03-15T14:37:38.776Z,6.45
2023-03-15T14:40:15.075Z,6.58
2023-03-15T14:42:45.268Z,6.52
2023-03-15T14:45:12.254Z,6.38
2023-03-15T14:47:56.834Z,5.99
2023-03-15T14:50:28.955Z,6.02
2023-03-15T14:52:56.749Z,5.72
2023-03-15T14:55:25.167Z,5.44
2023-03-15T14:57:51.821Z,5.04
2023-03-15T15:00:20.691Z,4.07
2023-03-15T15:02:49.378Z,3.82
2023-03-15T15:05:18.681Z,3.54
2023-03-15T15:07:45.516Z,3.55
2023-03-15T15:10:12.129Z,3.72
2023-03-15T15:12:39.002Z,3.77
2023-03-15T15:15:19.911Z,3.72
2023-03-15T15:17:46.588Z,3.65
2023-03-15T15:20:16.803Z,3.63
2023-03-15T15:22:43.634Z,3.59
2023-03-15T15:25:15.628Z,3.62
2023-03-15T15:27:42.404Z,3.64
2023-03-15T15:30:16.463Z,3.69
2023-03-15T15:32:46.733Z,3.52
2023-03-15T15:35:15.663Z,3.61
2023-03-15T15:37:47.775Z,3.58
2023-03-15T15:40:24.127Z,3.57
2023-03-15T15:42:50.813Z,3.41
2023-03-15T15:45:20.172Z,3.38
2023-03-15T15:47:47.370Z,3.17
2023-03-15T15:50:15.899Z,3.06
2023-03-15T15:52:49.536Z,3.06
2023-03-15T15:55:23.336Z,3.20
2023-03-15T15:57:51.458Z,3.34
2023-03-15T16:00:26.121Z,3.29
2023-03-15T16:02:53.851Z,3.42
2023-03-15T16:05:23.016Z,3.43
2023-03-15T16:07:51.357Z,3.45
2023-03-15T16:10:20.050Z,3.48
2023-03-15T16:12:47.588Z,3.58
2023-03-15T16:15:16.072Z,3.57
2023-03-15T16:17:42.852Z,3.54
2023-03-15T16:20:11.533Z,3.56
2023-03-15T16:22:39.589Z,3.59
2023-03-15T16:25:11.845Z,3.52
2023-03-15T16:27:38.516Z,3.50
2023-03-15T16:30:05.821Z,3.53
2023-03-15T16:32:43.941Z,3.61
2023-03-15T16:35:15.857Z,3.68
2023-03-15T16:37:43.350Z,3.60
2023-03-15T16:40:16.632Z,3.55
2023-03-15T16:42:43.305Z,3.55
2023-03-15T16:45:13.039Z,3.66
2023-03-15T16:47:39.639Z,3.77
2023-03-15T16:50:06.412Z,3.68
2023-03-15T16:52:33.303Z,3.59
2023-03-15T16:55:00.807Z,3.44
2023-03-15T16:57:27.451Z,3.55
2023-03-15T16:59:54.167Z,3.62
2023-03-15T17:02:22.940Z,3.67
2023-03-15T17:04:49.602Z,3.62
2023-03-15T17:07:17.216Z,3.51
2023-03-15T17:09:47.443Z,3.41
2023-03-15T17:12:22.580Z,3.40
2023-03-15T17:14:50.254Z,3.33
2023-03-15T17:17:16.948Z,3.24
2023-03-15T17:19:43.950Z,3.17
2023-03-15T17:22:11.950Z,3.14
2023-03-15T17:24:38.714Z,3.11
2023-03-15T17:27:22.343Z,3.07
2023-03-15T17:29:49.804Z,3.02
2023-03-15T17:32:16.445Z,2.98
2023-03-15T17:34:47.232Z,2.93
2023-03-15T17:37:14.957Z,2.96
2023-03-15T17:39:42.257Z,2.87
2023-03-15T17:42:15.446Z,2.81
2023-03-15T17:44:42.451Z,2.73
2023-03-15T17:47:11.056Z,2.73
2023-03-15T17:49:37.723Z,2.68
2023-03-15T17:52:04.876Z,2.66
2023-03-15T17:54:32.830Z,2.67
2023-03-15T17:56:59.999Z,2.60
2023-03-15T17:59:26.611Z,2.58
2023-03-15T18:01:53.294Z,2.58
2023-03-15T18:04:20.493Z,2.58
2023-03-15T18:06:47.231Z,2.57
2023-03-15T18:09:15.400Z,2.53
2023-03-15T18:11:42.798Z,2.50
2023-03-15T18:14:14.416Z,2.47
2023-03-15T18:16:41.613Z,2.43
2023-03-15T18:19:08.234Z,2.39
2023-03-15T18:21:34.943Z,2.36
2023-03-15T18:24:01.810Z,2.35
2023-03-15T18:26:28.585Z,2.31
2023-03-15T18:28:55.266Z,2.28
2023-03-15T18:31:25.478Z,2.27
2023-03-15T18:33:58.017Z,2.27
2023-03-15T18:36:24.782Z,2.25
2023-03-15T18:38:51.538Z,2.20
2023-03-15T18:41:20.933Z,2.19
2023-03-15T18:43:50.118Z,2.18
2023-03-15T18:46:18.385Z,2.16
2023-03-15T18:48:46.246Z,2.13
2023-03-15T18:51:13.815Z,2.13
2023-03-15T18:53:42.656Z,2.11
2023-03-15T18:56:16.690Z,2.10
2023-03-15T18:58:43.320Z,2.09
2023-03-15T19:01:10.197Z,2.09
2023-03-15T19:03:36.851Z,2.11
2023-03-15T19:06:11.762Z,2.11
2023-03-15T19:08:38.816Z,2.09
2023-03-15T19:11:08.081Z,2.11
2023-03-15T19:13:35.089Z,2.12
2023-03-15T19:16:01.950Z,2.12
2023-03-15T19:18:29.316Z,2.24
2023-03-15T19:20:55.932Z,2.37
2023-03-15T19:23:23.052Z,2.40
2023-03-15T19:25:49.896Z,2.37
2023-03-15T19:28:16.717Z,2.33
2023-03-15T19:30:43.307Z,2.30
2023-03-15T19:33:10.226Z,2.30
2023-03-15T19:35:37.080Z,2.26
2023-03-15T19:38:07.124Z,2.25
2023-03-15T19:40:33.892Z,2.27
2023-03-15T19:43:00.766Z,2.29
2023-03-15T19:45:27.698Z,2.27
2023-03-15T19:48:01.186Z,2.27
2023-03-15T19:50:32.892Z,2.24
2023-03-15T19:53:00.793Z,2.21
2023-03-15T19:55:31.797Z,2.16
2023-03-15T19:57:58.491Z,2.17
2023-03-15T20:00:31.968Z,2.19
2023-03-15T20:03:02.008Z,2.21
2023-03-15T20:05:31.462Z,2.15
2023-03-15T20:07:58.235Z,2.13
2023-03-15T20:10:27.924Z,2.16
2023-03-15T20:12:59.084Z,2.19
2023-03-15T20:15:28.128Z,2.19
2023-03-15T20:17:55.580Z,2.13
2023-03-15T20:20:24.226Z,2.12
2023-03-15T20:22:51.338Z,2.11
2023-03-15T20:25:19.673Z,2.07
2023-03-15T20:27:47.218Z,2.03
2023-03-15T20:30:15.426Z,2.00
2023-03-15T20:32:43.516Z,1.94
2023-03-15T20:35:10.987Z,1.87
2023-03-15T20:37:40.549Z,1.85
2023-03-15T20:40:09.661Z,1.85
2023-03-15T20:42:36.289Z,1.87
2023-03-15T20:45:04.384Z,1.89
2023-03-15T20:47:31.219Z,1.88
2023-03-15T20:49:57.944Z,1.89
2023-03-15T20:52:28.410Z,1.88
2023-03-15T20:54:55.754Z,1.81
2023-03-15T20:57:22.366Z,1.87
2023-03-15T20:59:49.136Z,1.87
2023-03-15T21:02:16.140Z,1.89
2023-03-15T21:04:44.581Z,1.91
2023-03-15T21:07:12.164Z,1.91
2023-03-15T21:09:39.409Z,1.88
2023-03-15T21:12:08.035Z,1.89
2023-03-15T21:14:35.275Z,1.91
2023-03-15T21:17:02.395Z,1.87
2023-03-15T21:19:30.574Z,1.89
2023-03-15T21:21:59.004Z,1.89
2023-03-15T21:24:28.982Z,1.85
2023-03-15T21:26:55.585Z,1.86
2023-03-15T21:29:22.466Z,1.81
2023-03-15T21:31:49.323Z,1.80
2023-03-15T21:34:15.978Z,1.75
2023-03-15T21:36:42.755Z,1.78
2023-03-15T21:39:09.555Z,1.77
2023-03-15T21:41:36.141Z,1.78
2023-03-15T21:44:02.740Z,1.73
2023-03-15T21:46:29.500Z,1.75
2023-03-15T21:48:56.265Z,1.73
2023-03-15T21:51:22.846Z,1.73
2023-03-15T21:53:52.221Z,1.66
2023-03-15T21:56:18.846Z,1.58
2023-03-15T21:58:46.293Z,1.58
2023-03-15T22:01:14.190Z,1.61
2023-03-15T22:03:46.919Z,1.57
2023-03-15T22:06:13.596Z,1.58
2023-03-15T22:08:41.231Z,1.57
2023-03-15T22:11:07.948Z,1.52
2023-03-15T22:13:34.695Z,1.50
2023-03-15T22:16:01.520Z,1.47
2023-03-15T22:18:28.837Z,1.45
2023-03-15T22:20:56.269Z,1.47
2023-03-15T22:23:26.127Z,1.43
2023-03-15T22:25:56.032Z,1.46
2023-03-15T22:28:25.100Z,1.50
2023-03-15T22:30:52.388Z,1.48
2023-03-15T22:33:19.943Z,1.48
2023-03-15T22:35:46.547Z,1.43
2023-03-15T22:38:13.433Z,1.40
2023-03-15T22:40:41.227Z,1.39
2023-03-15T22:43:08.468Z,1.39
2023-03-15T22:45:35.104Z,1.30
2023-03-15T22:48:01.760Z,1.33
2023-03-15T22:50:28.761Z,1.30
2023-03-15T22:52:55.608Z,1.30
2023-03-15T22:55:22.248Z,1.22
2023-03-15T22:57:51.784Z,1.15
2023-03-15T23:00:21.725Z,1.18
2023-03-15T23:02:48.358Z,1.13
2023-03-15T23:05:15.139Z,1.09
2023-03-15T23:07:48.184Z,1.04
2023-03-15T23:10:15.757Z,1.01
2023-03-15T23:12:44.615Z,0.99
2023-03-15T23:15:14.235Z,0.98
2023-03-15T23:17:46.107Z,0.93
2023-03-15T23:20:17.821Z,0.88
2023-03-15T23:22:45.215Z,0.83
2023-03-15T23:25:12.625Z,0.85
2023-03-15T23:27:39.541Z,0.84
2023-03-15T23:30:08.108Z,0.84
2023-03-15T23:32:37.927Z,0.83
2023-03-15T23:35:06.321Z,0.83
2023-03-15T23:37:53.092Z,0.84
2023-03-15T23:40:20.584Z,0.85
2023-03-15T23:42:47.395Z,0.88
2023-03-15T23:45:18.116Z,0.85
2023-03-15T23:47:47.606Z,0.82
2023-03-15T23:50:14.273Z,0.73
2023-03-15T23:52:41.430Z,0.74
2023-03-15T23:55:08.469Z,0.71
2023-03-15T23:57:35.182Z,0.71
